Time;durP1;ratioP1;P1;durP2;ratioP2;P2;SDS_P1;SDS_P2;PMS_P1;PMS_P2;Temp;Humidity;BMP_temperature;BMP_pressure;BME280_temperature;BME280_humidity;BME280_pressure;Samples;Min_cycle;Max_cycle;Signal;HPM_P1;HPM_P2
2023/01/08 04:19:29;;;;;;;67.65;13.52;;;10.20;99.90;;;;;;6187834;22;20509;-87
2023/01/08 04:21:54;;;;;;;69.65;13.75;;;10.10;99.90;;;;;;6216817;23;20172;-87
2023/01/08 04:24:24;;;;;;;67.53;12.63;;;10.10;99.90;;;;;;6217101;23;20226;-87
2023/01/08 04:26:50;;;;;;;68.10;14.20;;;10.10;99.90;;;;;;6216493;23;20153;-87
2023/01/08 04:29:18;;;;;;;66.57;12.00;;;10.10;99.90;;;;;;6216689;23;20147;-87
2023/01/08 04:31:44;;;;;;;68.57;14.48;;;10.10;99.90;;;;;;6189840;23;20466;-87
2023/01/08 04:34:10;;;;;;;67.60;12.60;;;10.10;99.90;;;;;;6189792;23;20206;-87
2023/01/08 04:36:35;;;;;;;68.53;14.50;;;10.10;99.90;;;;;;6189759;23;20191;-87
2023/01/08 04:39:02;;;;;;;67.47;14.03;;;10.20;99.90;;;;;;6216420;23;20585;-87
2023/01/08 04:41:50;;;;;;;67.63;15.43;;;10.20;99.90;;;;;;6216380;23;20165;-87
2023/01/08 04:44:16;;;;;;;69.13;18.00;;;10.20;99.90;;;;;;6216095;23;20237;-87
2023/01/08 04:46:44;;;;;;;69.53;20.00;;;10.20;99.90;;;;;;6190075;23;20532;-87
2023/01/08 04:49:11;;;;;;;69.22;18.75;;;10.20;99.90;;;;;;6216371;23;20139;-87
2023/01/08 04:51:37;;;;;;;69.97;22.65;;;10.20;99.90;;;;;;6216358;23;20217;-87
2023/01/08 04:54:03;;;;;;;72.50;25.23;;;10.30;99.90;;;;;;6189655;23;20180;-87
2023/01/08 04:56:28;;;;;;;71.63;24.30;;;10.20;99.90;;;;;;6216383;23;20694;-87
2023/01/08 04:58:54;;;;;;;70.10;23.47;;;10.20;99.90;;;;;;6189583;23;20380;-87
2023/01/08 05:01:25;;;;;;;68.77;20.60;;;10.20;99.90;;;;;;6216293;23;20490;-87
2023/01/08 05:03:58;;;;;;;70.10;20.23;;;10.20;99.90;;;;;;6189623;23;20195;-87
2023/01/08 05:06:25;;;;;;;69.15;19.42;;;10.10;99.90;;;;;;6216527;23;20206;-87
2023/01/08 05:08:51;;;;;;;68.63;18.88;;;10.10;99.90;;;;;;6189503;23;20164;-87
2023/01/08 05:11:16;;;;;;;69.40;20.73;;;10.20;99.90;;;;;;6189574;23;20159;-87
2023/01/08 05:13:42;;;;;;;70.90;23.37;;;10.20;99.90;;;;;;6189586;23;20415;-87
2023/01/08 05:16:08;;;;;;;70.90;24.57;;;10.20;99.90;;;;;;6189480;23;20208;-87
2023/01/08 05:18:34;;;;;;;68.70;19.53;;;10.20;99.90;;;;;;6189457;23;20149;-87
2023/01/08 05:21:01;;;;;;;69.17;20.20;;;10.30;99.90;;;;;;6216085;23;20176;-87
2023/01/08 05:23:27;;;;;;;67.63;15.55;;;10.30;99.90;;;;;;6216022;23;20137;-87
2023/01/08 05:25:59;;;;;;;66.82;13.90;;;10.30;99.90;;;;;;6216179;23;20167;-87
2023/01/08 05:28:26;;;;;;;67.07;12.85;;;10.30;99.90;;;;;;6190498;23;20144;-87
2023/01/08 05:30:51;;;;;;;67.07;13.95;;;10.30;99.90;;;;;;6189668;23;20199;-87
2023/01/08 05:33:17;;;;;;;70.07;22.50;;;10.30;99.90;;;;;;6189416;23;20148;-87
2023/01/08 05:35:42;;;;;;;70.20;25.93;;;10.20;99.90;;;;;;6215829;23;20230;-88
2023/01/08 05:38:08;;;;;;;71.73;22.23;;;10.20;99.90;;;;;;6215959;23;20140;-88
2023/01/08 05:40:34;;;;;;;71.60;28.23;;;10.10;99.90;;;;;;6215882;23;20148;-88
2023/01/08 05:43:00;;;;;;;71.53;26.00;;;10.20;99.90;;;;;;6189242;23;20194;-88
2023/01/08 05:45:29;;;;;;;69.72;22.55;;;10.10;99.90;;;;;;6215761;23;20136;-88
2023/01/08 05:47:54;;;;;;;70.78;22.55;;;10.10;99.90;;;;;;6216181;23;20141;-88
2023/01/08 05:50:20;;;;;;;68.47;17.00;;;10.20;99.90;;;;;;6189123;23;20199;-88
2023/01/08 05:52:48;;;;;;;68.10;17.57;;;10.20;99.90;;;;;;6215543;23;20166;-88
2023/01/08 05:55:15;;;;;;;70.53;16.08;;;10.20;99.90;;;;;;6189148;23;20159;-87
2023/01/08 05:57:40;;;;;;;66.82;14.15;;;10.20;99.90;;;;;;6215811;23;20144;-87
2023/01/08 06:00:08;;;;;;;67.40;13.50;;;10.20;99.90;;;;;;6189286;23;20581;-88
2023/01/08 06:02:34;;;;;;;67.15;15.30;;;10.20;99.90;;;;;;6215633;23;20160;-88
2023/01/08 06:05:00;;;;;;;66.77;14.00;;;10.20;99.90;;;;;;6216138;23;20136;-87
2023/01/08 06:07:27;;;;;;;67.33;13.73;;;10.20;99.90;;;;;;6215728;23;20379;-87
2023/01/08 06:09:53;;;;;;;68.88;12.95;;;10.20;99.90;;;;;;6189265;23;20199;-87
2023/01/08 06:12:18;;;;;;;67.17;15.00;;;10.20;99.90;;;;;;6189709;23;20149;-88
2023/01/08 06:14:47;;;;;;;66.73;13.53;;;10.20;99.90;;;;;;6215704;23;20152;-88
2023/01/08 06:17:14;;;;;;;67.72;15.88;;;10.20;99.90;;;;;;6189361;23;20199;-88
2023/01/08 06:19:40;;;;;;;66.32;13.40;;;10.20;99.90;;;;;;6215661;23;20231;-87
2023/01/08 06:22:06;;;;;;;67.20;15.47;;;10.10;99.90;;;;;;6215848;23;20196;-88
2023/01/08 06:24:31;;;;;;;67.77;10.70;;;10.10;99.90;;;;;;6188966;23;20195;-88
2023/01/08 06:26:57;;;;;;;66.37;13.07;;;10.10;99.90;;;;;;6215508;23;20164;-88
2023/01/08 06:29:23;;;;;;;67.33;15.50;;;10.00;99.90;;;;;;6188975;23;20145;-88
2023/01/08 06:31:51;;;;;;;66.43;11.80;;;10.10;99.90;;;;;;6189034;23;20481;-88
2023/01/08 06:34:17;;;;;;;68.10;12.45;;;10.10;99.90;;;;;;6215562;23;20598;-88
2023/01/08 06:36:43;;;;;;;66.67;12.37;;;10.00;99.90;;;;;;6189132;23;20172;-88
2023/01/08 06:39:08;;;;;;;69.47;10.57;;;10.00;99.90;;;;;;6188939;23;20202;-88
2023/01/08 06:41:34;;;;;;;66.10;11.87;;;10.00;99.90;;;;;;6188680;23;20187;-88
2023/01/08 06:44:00;;;;;;;66.60;12.50;;;10.00;99.90;;;;;;6215511;23;20137;-88
2023/01/08 06:46:28;;;;;;;68.40;14.20;;;9.90;99.90;;;;;;6215382;23;20157;-87
2023/01/08 06:48:54;;;;;;;67.60;15.32;;;9.90;99.90;;;;;;6215473;23;20143;-88
2023/01/08 06:51:19;;;;;;;68.87;16.77;;;9.80;99.90;;;;;;6215496;23;20145;-88
2023/01/08 06:53:47;;;;;;;67.50;16.07;;;9.80;99.90;;;;;;6188836;23;20144;-88
2023/01/08 06:56:13;;;;;;;69.90;15.70;;;9.90;99.90;;;;;;6188736;23;20172;-88
2023/01/08 06:58:39;;;;;;;68.00;17.13;;;9.90;99.90;;;;;;6188772;23;20545;-88
2023/01/08 07:01:05;;;;;;;66.80;15.07;;;9.90;99.90;;;;;;6215695;23;20196;-88
2023/01/08 07:03:31;;;;;;;68.47;17.85;;;9.90;99.90;;;;;;6189201;23;20145;-88
2023/01/08 07:06:02;;;;;;;68.67;18.87;;;10.00;99.90;;;;;;6217684;23;20215;-88
2023/01/08 07:08:27;;;;;;;69.82;16.60;;;10.00;99.90;;;;;;6190808;23;20177;-88
2023/01/08 07:10:53;;;;;;;67.77;15.10;;;10.00;99.90;;;;;;6190696;23;20145;-88
2023/01/08 07:13:19;;;;;;;66.23;11.90;;;10.10;99.90;;;;;;6217989;23;20164;-88
2023/01/08 07:15:45;;;;;;;70.57;11.43;;;10.30;99.90;;;;;;6217528;23;20724;-88
2023/01/08 07:18:14;;;;;;;65.97;10.07;;;10.30;99.90;;;;;;6217186;23;20169;-88
2023/01/08 07:20:40;;;;;;;66.10;8.02;;;10.30;99.90;;;;;;6190369;23;20199;-88
2023/01/08 07:23:09;;;;;;;66.60;9.03;;;10.30;99.90;;;;;;6190565;23;20508;-88
2023/01/08 07:25:34;;;;;;;64.72;7.85;;;10.30;99.90;;;;;;6217088;23;20157;-88
2023/01/08 07:28:00;;;;;;;67.27;9.80;;;10.20;99.90;;;;;;6190475;23;20482;-88
2023/01/08 07:30:29;;;;;;;64.97;6.57;;;10.20;99.90;;;;;;6190421;23;20176;-88
2023/01/08 07:32:59;;;;;;;79.70;6.40;;;10.20;99.90;;;;;;6217055;23;20223;-88
2023/01/08 07:35:25;;;;;;;65.05;6.53;;;10.20;99.90;;;;;;6190337;23;20148;-88
2023/01/08 07:37:50;;;;;;;67.10;10.10;;;10.10;99.90;;;;;;6218099;23;20152;-88
2023/01/08 07:40:16;;;;;;;65.60;11.10;;;10.00;99.90;;;;;;6217364;23;20144;-88
2023/01/08 07:42:42;;;;;;;69.80;17.17;;;10.00;99.90;;;;;;6216907;23;20168;-88
2023/01/08 07:45:08;;;;;;;71.37;19.37;;;9.80;99.90;;;;;;6217044;23;20144;-88
2023/01/08 07:47:33;;;;;;;72.70;28.70;;;9.80;99.90;;;;;;6216854;23;20163;-88
2023/01/08 07:49:59;;;;;;;71.97;26.13;;;9.70;99.90;;;;;;6217411;23;20827;-88
2023/01/08 07:52:24;;;;;;;72.67;31.87;;;9.70;99.90;;;;;;6190366;23;20612;-88
2023/01/08 07:54:50;;;;;;;70.90;22.73;;;9.80;99.90;;;;;;6190516;23;20228;-88
2023/01/08 07:57:16;;;;;;;68.60;17.67;;;9.80;99.90;;;;;;6216901;23;20613;-88
2023/01/08 07:59:41;;;;;;;67.87;17.47;;;9.90;99.90;;;;;;6216931;23;20603;-88
2023/01/08 08:02:09;;;;;;;71.33;23.50;;;9.90;99.90;;;;;;6190470;23;20195;-88
2023/01/08 08:04:35;;;;;;;73.07;28.30;;;9.80;99.90;;;;;;6190169;23;20152;-88
2023/01/08 08:07:01;;;;;;;75.27;32.50;;;9.80;99.90;;;;;;6217067;23;20647;-88
2023/01/08 08:09:30;;;;;;;73.90;20.90;;;9.80;99.90;;;;;;6190157;23;20372;-88
2023/01/08 08:11:55;;;;;;;71.97;15.80;;;9.80;99.90;;;;;;6190084;23;20155;-87
2023/01/08 08:14:21;;;;;;;68.00;11.30;;;9.80;99.90;;;;;;6216548;23;20144;-88
2023/01/08 08:16:47;;;;;;;68.17;8.50;;;9.90;99.90;;;;;;6216919;23;20612;-88
2023/01/08 08:19:14;;;;;;;66.00;8.60;;;9.90;99.90;;;;;;6216875;23;20148;-88
2023/01/08 08:21:40;;;;;;;69.18;5.90;;;9.90;99.90;;;;;;6217018;23;20485;-88
2023/01/08 08:24:05;;;;;;;68.67;8.63;;;9.90;99.90;;;;;;6216983;23;20216;-88
2023/01/08 08:26:31;;;;;;;67.93;6.73;;;9.90;99.90;;;;;;6190047;23;20167;-88
2023/01/08 08:29:00;;;;;;;64.50;5.87;;;9.90;99.90;;;;;;6216665;23;20368;-88
2023/01/08 08:31:25;;;;;;;69.40;9.57;;;9.90;99.90;;;;;;6189858;23;20156;-88
2023/01/08 08:33:51;;;;;;;67.70;6.93;;;9.90;99.90;;;;;;6216582;23;20144;-88
2023/01/08 08:36:17;;;;;;;67.20;7.30;;;9.80;99.90;;;;;;6189897;23;20175;-88
2023/01/08 08:38:42;;;;;;;70.37;7.10;;;9.80;99.90;;;;;;6216504;23;20148;-88
2023/01/08 08:41:08;;;;;;;73.60;7.60;;;9.80;99.90;;;;;;6216398;23;20203;-88
2023/01/08 08:43:34;;;;;;;65.60;7.63;;;9.80;99.90;;;;;;6216425;23;20136;-88
2023/01/08 08:45:59;;;;;;;64.87;6.20;;;9.90;99.90;;;;;;6189761;23;20207;-88
2023/01/08 08:48:25;;;;;;;67.47;6.20;;;9.80;99.90;;;;;;6189866;23;20152;-88
2023/01/08 08:50:51;;;;;;;66.68;7.80;;;9.80;99.90;;;;;;6189773;23;20145;-88
2023/01/08 08:53:17;;;;;;;65.10;6.77;;;9.90;99.90;;;;;;6216375;23;20141;-88
2023/01/08 08:55:42;;;;;;;71.57;7.77;;;9.80;94.50;;;;;;6216638;23;20156;-87
2023/01/08 08:58:11;;;;;;;65.97;7.00;;;9.80;96.40;;;;;;6216304;23;20143;-87
2023/01/08 09:00:41;;;;;;;67.25;7.15;;;9.80;94.80;;;;;;6216603;23;20195;-87
2023/01/08 09:03:12;;;;;;;66.78;6.25;;;9.80;94.10;;;;;;6216513;23;20199;-87
2023/01/08 09:05:38;;;;;;;65.10;7.03;;;9.90;92.70;;;;;;6216489;23;20163;-88
2023/01/08 09:08:04;;;;;;;67.17;6.97;;;9.90;99.90;;;;;;6216176;23;20141;-88
2023/01/08 09:10:29;;;;;;;65.87;9.60;;;10.00;99.90;;;;;;6189864;23;20598;-88
2023/01/08 09:12:55;;;;;;;65.40;8.03;;;10.00;99.90;;;;;;6189560;23;20376;-88
2023/01/08 09:15:21;;;;;;;67.47;10.60;;;9.90;99.90;;;;;;6189452;23;20225;-87
2023/01/08 09:17:55;;;;;;;67.50;9.57;;;9.90;99.90;;;;;;6189511;23;20149;-87
2023/01/08 09:20:22;;;;;;;69.45;8.80;;;9.90;99.90;;;;;;6189817;23;20167;-87
2023/01/08 09:22:47;;;;;;;67.90;11.23;;;9.90;99.90;;;;;;6216002;23;20168;-87
2023/01/08 09:25:13;;;;;;;66.80;7.77;;;9.90;99.90;;;;;;6216631;23;20263;-87
2023/01/08 09:27:39;;;;;;;67.20;9.30;;;9.90;99.90;;;;;;6215681;23;20466;-88
2023/01/08 09:30:05;;;;;;;67.10;8.73;;;9.80;99.90;;;;;;6189448;23;20383;-87
2023/01/08 09:32:31;;;;;;;66.20;8.35;;;9.80;99.90;;;;;;6189324;23;20151;-87
2023/01/08 09:34:59;;;;;;;66.67;8.33;;;9.80;1.00;;;;;;6215954;23;20176;-87
2023/01/08 09:37:25;;;;;;;68.25;8.20;;;9.80;99.90;;;;;;6189251;23;20172;-87
2023/01/08 09:39:50;;;;;;;65.43;6.77;;;9.70;99.90;;;;;;6216272;23;20148;-87
2023/01/08 09:42:22;;;;;;;65.60;8.00;;;9.70;99.90;;;;;;6216435;23;20169;-87
2023/01/08 09:44:51;;;;;;;66.68;8.73;;;9.70;99.90;;;;;;6215965;23;20553;-88
2023/01/08 09:47:34;;;;;;;68.32;13.88;;;9.60;99.90;;;;;;6216116;23;20153;-87
2023/01/08 09:50:05;;;;;;;69.38;12.10;;;9.50;99.90;;;;;;6216053;23;20132;-87
2023/01/08 09:52:31;;;;;;;70.40;13.43;;;9.60;1.00;;;;;;6216105;23;20187;-87
2023/01/08 09:55:00;;;;;;;66.85;13.52;;;9.60;99.90;;;;;;6215855;23;20147;-87
2023/01/08 09:57:27;;;;;;;68.03;15.00;;;9.60;99.90;;;;;;6215798;23;20160;-87
2023/01/08 09:59:53;;;;;;;71.03;20.13;;;9.60;99.90;;;;;;6216101;23;20470;-87
2023/01/08 10:02:24;;;;;;;67.97;16.00;;;9.80;99.90;;;;;;6215831;23;20161;-87
2023/01/08 10:04:58;;;;;;;68.18;17.25;;;9.90;99.90;;;;;;6216308;23;20264;-86
2023/01/08 10:07:26;;;;;;;69.55;15.25;;;9.90;99.90;;;;;;6216025;23;20160;-86
2023/01/08 10:09:54;;;;;;;70.50;21.98;;;9.90;99.90;;;;;;6216343;23;20148;-87
2023/01/08 10:12:25;;;;;;;68.63;17.52;;;9.90;99.90;;;;;;6216198;23;20145;-86
2023/01/08 10:14:52;;;;;;;70.18;21.20;;;10.00;99.90;;;;;;6216304;23;20167;-87
2023/01/08 10:17:21;;;;;;;73.30;22.13;;;10.10;99.90;;;;;;6216157;23;20171;-87
2023/01/08 16:21:09;;;;;;;65.72;5.68;;;9.60;94.60;;;;;;6235280;22;20203;-85
2023/01/08 16:23:36;;;;;;;64.95;5.38;;;9.60;94.90;;;;;;6248763;23;20455;-86
2023/01/08 16:26:07;;;;;;;67.45;5.30;;;9.60;95.30;;;;;;6221866;23;20168;-86
2023/01/08 16:28:35;;;;;;;67.75;5.47;;;9.60;95.80;;;;;;6247638;23;20168;-86
2023/01/08 16:31:01;;;;;;;64.95;6.05;;;9.60;96.20;;;;;;6220776;23;20144;-86
2023/01/08 16:33:27;;;;;;;66.03;6.03;;;9.50;98.90;;;;;;6220704;23;20152;-86
2023/01/08 16:36:01;;;;;;;68.83;9.43;;;9.50;99.50;;;;;;6220076;23;20655;-88
2023/01/08 16:38:28;;;;;;;69.70;8.75;;;9.40;99.80;;;;;;6221123;23;20143;-88
2023/01/08 16:40:58;;;;;;;65.88;6.15;;;9.40;99.90;;;;;;6246757;23;20140;-88
2023/01/08 16:43:25;;;;;;;66.13;6.32;;;9.30;99.90;;;;;;6220008;23;20136;-88
2023/01/08 16:45:51;;;;;;;66.35;8.98;;;9.20;99.90;;;;;;6247018;22;20160;-87
2023/01/08 16:48:17;;;;;;;68.70;11.70;;;9.10;99.90;;;;;;6219921;23;20144;-88
2023/01/08 16:50:44;;;;;;;67.18;10.13;;;9.00;99.90;;;;;;6246759;23;20151;-88
2023/01/08 16:53:12;;;;;;;69.57;12.75;;;8.90;99.90;;;;;;6247951;23;20490;-88
2023/01/08 16:55:43;;;;;;;67.78;9.80;;;8.90;99.90;;;;;;6219429;22;20171;-88
2023/01/08 16:58:09;;;;;;;69.10;11.88;;;8.90;99.90;;;;;;6247058;23;20174;-88
2023/01/08 17:00:36;;;;;;;68.37;10.07;;;8.80;99.90;;;;;;6219825;23;20152;-88
2023/01/08 17:03:03;;;;;;;70.03;11.63;;;8.80;99.90;;;;;;6246428;23;20164;-88
2023/01/08 17:05:29;;;;;;;67.25;11.18;;;8.80;99.90;;;;;;6219725;22;20151;-88
2023/01/08 17:07:55;;;;;;;66.90;8.60;;;8.80;99.90;;;;;;6246789;23;20140;-88
2023/01/08 17:10:24;;;;;;;67.90;8.97;;;8.80;99.90;;;;;;6246974;23;20135;-87
2023/01/08 17:12:50;;;;;;;71.35;8.60;;;8.80;99.90;;;;;;6220659;23;20481;-87
2023/01/08 17:15:16;;;;;;;66.87;7.80;;;8.70;99.90;;;;;;6247691;22;20577;-87
2023/01/08 17:17:42;;;;;;;72.10;9.00;;;8.70;99.90;;;;;;6247416;23;20398;-87
2023/01/08 17:20:09;;;;;;;66.50;8.30;;;8.70;99.90;;;;;;6247264;23;20666;-87
2023/01/08 17:22:34;;;;;;;67.22;8.35;;;8.70;99.90;;;;;;6246616;23;20635;-87
2023/01/08 17:25:00;;;;;;;71.80;9.77;;;8.70;99.90;;;;;;6220271;23;20144;-87
2023/01/08 17:27:29;;;;;;;66.87;9.87;;;8.70;99.90;;;;;;6246588;22;20743;-85
2023/01/08 17:29:55;;;;;;;69.63;9.23;;;8.70;99.90;;;;;;6247017;23;20411;-86
2023/01/08 17:32:20;;;;;;;67.67;9.60;;;8.80;99.90;;;;;;6246826;23;20132;-85
2023/01/08 17:34:46;;;;;;;66.47;8.00;;;8.80;99.90;;;;;;6219826;23;20230;-85
2023/01/08 17:37:12;;;;;;;68.47;8.17;;;8.90;99.90;;;;;;6247100;22;20386;-85
2023/01/08 17:39:37;;;;;;;66.43;9.83;;;8.80;99.90;;;;;;6247092;23;20597;-86
2023/01/08 17:44:47;;;;;;;84.95;16.50;;;8.80;99.90;;;;;;6247106;23;20207;-85
2023/01/08 17:47:13;;;;;;;111.07;27.27;;;8.80;99.90;;;;;;6246466;22;20613;-86
2023/01/08 17:49:38;;;;;;;111.00;25.70;;;8.90;99.90;;;;;;6219863;23;20144;-85
2023/01/08 17:52:04;;;;;;;82.97;14.43;;;8.80;99.90;;;;;;6219764;23;20152;-86
2023/01/08 17:54:30;;;;;;;87.67;17.00;;;8.80;99.90;;;;;;6246569;23;20481;-85
2023/01/08 17:56:58;;;;;;;78.03;13.97;;;8.80;99.90;;;;;;6219555;23;20717;-85
2023/01/08 17:59:24;;;;;;;69.75;11.15;;;8.80;99.90;;;;;;6246484;23;20370;-86
2023/01/08 18:01:51;;;;;;;72.27;10.33;;;8.70;99.90;;;;;;6219911;23;20175;-86
2023/01/08 18:04:17;;;;;;;67.13;10.05;;;8.70;99.90;;;;;;6219434;23;20147;-86
2023/01/08 18:06:44;;;;;;;66.65;10.00;;;8.60;99.90;;;;;;6219533;23;20168;-85
2023/01/08 18:09:11;;;;;;;70.13;12.70;;;8.50;99.90;;;;;;6219534;23;20133;-85
2023/01/08 18:11:38;;;;;;;67.55;11.68;;;8.50;99.90;;;;;;6246977;23;20576;-86
2023/01/08 18:14:04;;;;;;;69.30;11.48;;;8.50;99.90;;;;;;6219447;23;20174;-85
2023/01/08 18:16:31;;;;;;;72.47;17.50;;;8.40;99.90;;;;;;6246259;22;20234;-85
2023/01/08 18:18:58;;;;;;;71.47;17.40;;;8.40;99.90;;;;;;6246124;23;20367;-85
2023/01/08 18:21:25;;;;;;;72.53;17.35;;;8.30;99.90;;;;;;6219099;23;20176;-85
2023/01/08 18:23:51;;;;;;;76.32;19.40;;;8.30;99.90;;;;;;6246403;23;20124;-85
2023/01/08 18:26:19;;;;;;;71.55;20.27;;;8.20;99.90;;;;;;6245927;22;20171;-86
2023/01/08 18:28:45;;;;;;;72.97;22.80;;;8.30;99.90;;;;;;6219340;23;20144;-85
2023/01/08 18:31:13;;;;;;;72.63;18.38;;;8.20;99.90;;;;;;6219092;23;20293;-88
2023/01/08 18:33:39;;;;;;;70.70;15.85;;;8.20;99.90;;;;;;6246115;23;20212;-87
2023/01/08 18:36:08;;;;;;;72.20;23.67;;;8.20;99.90;;;;;;6246323;22;20160;-87
2023/01/08 18:38:35;;;;;;;78.22;35.50;;;8.20;99.90;;;;;;6219207;23;20144;-87
2023/01/08 18:41:01;;;;;;;77.70;28.65;;;8.20;99.90;;;;;;6219402;23;20178;-87
2023/01/08 18:43:27;;;;;;;74.50;22.70;;;8.20;99.90;;;;;;6246066;23;20136;-87
2023/01/08 18:46:00;;;;;;;74.90;25.30;;;8.20;99.90;;;;;;6246084;22;20183;-87
2023/01/08 18:48:30;;;;;;;71.50;17.95;;;8.20;99.90;;;;;;6219820;23;20486;-87
2023/01/08 18:50:56;;;;;;;75.50;19.15;;;8.20;99.90;;;;;;6245998;23;20140;-87
2023/01/08 18:53:22;;;;;;;71.70;20.03;;;8.20;99.90;;;;;;6246526;23;20449;-87
2023/01/08 18:55:49;;;;;;;72.13;21.30;;;8.20;99.90;;;;;;6246461;22;20390;-87
2023/01/08 18:58:15;;;;;;;71.80;21.67;;;8.20;99.90;;;;;;6220085;23;20175;-88
2023/01/08 19:00:41;;;;;;;72.82;25.10;;;8.10;99.90;;;;;;6249011;23;20140;-87
2023/01/08 19:03:11;;;;;;;78.70;23.50;;;8.20;99.90;;;;;;6221859;23;20175;-87
2023/01/08 19:05:43;;;;;;;77.10;27.02;;;8.20;99.90;;;;;;6248099;22;20231;-87
2023/01/08 19:08:09;;;;;;;74.45;24.58;;;8.20;99.90;;;;;;6248212;23;20171;-87
2023/01/08 19:10:36;;;;;;;73.57;26.48;;;8.20;99.90;;;;;;6248227;23;20143;-88
2023/01/08 19:13:03;;;;;;;76.93;35.90;;;8.20;99.90;;;;;;6248111;23;20214;-87
2023/01/08 19:15:28;;;;;;;78.35;35.25;;;8.20;99.90;;;;;;6222102;22;20480;-87
2023/01/08 19:17:54;;;;;;;74.77;27.93;;;8.10;99.90;;;;;;6221219;23;20155;-88
2023/01/08 19:20:20;;;;;;;75.20;34.67;;;8.20;99.90;;;;;;6221064;23;20167;-87
2023/01/08 19:22:45;;;;;;;75.30;33.37;;;8.10;99.90;;;;;;6248099;23;20186;-88
2023/01/08 19:25:13;;;;;;;73.40;30.47;;;8.10;99.90;;;;;;6248170;23;20186;-87
2023/01/08 19:27:39;;;;;;;77.57;30.83;;;8.20;99.90;;;;;;6220928;23;20151;-88
2023/01/08 19:30:05;;;;;;;76.47;35.63;;;8.20;99.90;;;;;;6221261;23;20148;-88
2023/01/08 19:32:31;;;;;;;75.45;36.58;;;8.20;99.90;;;;;;6248229;23;20218;-87
2023/01/08 19:34:59;;;;;;;75.05;34.70;;;8.20;99.90;;;;;;6248102;23;20509;-88
2023/01/08 19:37:25;;;;;;;76.68;33.47;;;8.20;99.90;;;;;;6247888;22;20625;-87
2023/01/08 19:39:51;;;;;;;74.00;26.83;;;8.20;99.90;;;;;;6220998;23;20222;-85
2023/01/08 19:45:01;;;;;;;77.55;38.80;;;8.20;99.90;;;;;;6248386;23;20389;-85
2023/01/08 19:47:30;;;;;;;80.87;48.90;;;8.20;99.90;;;;;;6247958;22;20605;-85
2023/01/08 19:49:55;;;;;;;78.72;45.42;;;8.20;99.90;;;;;;6220902;23;20170;-85
2023/01/08 19:52:21;;;;;;;77.70;38.87;;;8.20;99.90;;;;;;6247673;23;20171;-85
2023/01/08 19:54:47;;;;;;;76.73;37.60;;;8.20;99.90;;;;;;6220693;23;20493;-87
2023/01/08 19:57:13;;;;;;;73.63;28.33;;;8.20;99.90;;;;;;6220268;23;20828;-87
2023/01/08 19:59:38;;;;;;;76.43;33.80;;;8.20;99.90;;;;;;6220829;23;20152;-88
2023/01/08 20:02:04;;;;;;;75.10;27.20;;;8.20;99.90;;;;;;6220900;23;20172;-87
2023/01/08 20:04:30;;;;;;;72.40;24.57;;;8.20;99.90;;;;;;6247557;23;20140;-87
2023/01/08 20:06:57;;;;;;;74.07;26.85;;;8.20;99.90;;;;;;6220667;23;20244;-87
2023/01/08 20:09:22;;;;;;;74.85;27.45;;;8.10;99.90;;;;;;6247675;23;20577;-87
2023/01/08 20:11:48;;;;;;;73.37;25.47;;;8.10;99.90;;;;;;6220360;23;20233;-88
2023/01/08 20:14:14;;;;;;;77.73;37.30;;;8.10;99.90;;;;;;6247585;23;20147;-87
2023/01/08 20:16:39;;;;;;;78.73;44.07;;;8.10;99.90;;;;;;6247976;22;20171;-87
2023/01/08 20:19:05;;;;;;;81.87;53.60;;;8.10;99.90;;;;;;6247830;23;20144;-87
2023/01/08 20:21:32;;;;;;;81.67;50.20;;;8.20;99.90;;;;;;6247504;23;20179;-88
2023/01/08 20:24:01;;;;;;;79.90;48.30;;;8.20;99.90;;;;;;6220650;23;20227;-88
2023/01/08 20:26:29;;;;;;;83.57;54.03;;;8.20;99.90;;;;;;6247811;22;20163;-87
2023/01/08 20:28:59;;;;;;;81.45;45.33;;;8.20;99.90;;;;;;6247570;23;20136;-87
2023/01/08 20:31:31;;;;;;;81.10;50.25;;;8.20;99.90;;;;;;6247951;23;20592;-87
2023/01/08 20:33:58;;;;;;;80.85;51.28;;;8.20;99.90;;;;;;6247346;23;20191;-87
2023/01/08 20:36:26;;;;;;;80.38;49.28;;;8.20;99.90;;;;;;6220326;23;20191;-87
2023/01/08 20:38:58;;;;;;;79.57;46.55;;;8.20;99.90;;;;;;6247654;23;20226;-87
2023/01/08 20:41:25;;;;;;;80.68;49.22;;;8.20;99.90;;;;;;6247187;23;20160;-88
2023/01/08 20:43:54;;;;;;;84.18;54.03;;;8.20;99.90;;;;;;6220484;23;20179;-88
2023/01/08 20:46:21;;;;;;;83.50;54.65;;;8.20;99.90;;;;;;6247297;22;20163;-87
2023/01/08 20:48:47;;;;;;;85.97;47.15;;;8.20;99.90;;;;;;6219888;23;20231;-87
2023/01/08 20:51:13;;;;;;;87.13;54.90;;;8.20;99.90;;;;;;6246924;23;20237;-88
2023/01/08 20:53:40;;;;;;;82.10;53.75;;;8.30;99.90;;;;;;6246971;23;20178;-87
2023/01/08 20:56:11;;;;;;;83.95;54.30;;;8.30;99.90;;;;;;6246814;22;20187;-88
2023/01/08 20:58:39;;;;;;;80.57;49.17;;;8.30;99.90;;;;;;6247339;23;20155;-87
2023/01/08 21:01:09;;;;;;;81.00;48.92;;;8.40;99.90;;;;;;6247273;23;20140;-87
2023/01/08 21:03:35;;;;;;;86.30;55.53;;;8.40;99.90;;;;;;6246833;23;20163;-87
2023/01/08 21:06:08;;;;;;;79.90;47.80;;;8.40;99.90;;;;;;6220097;23;20168;-88
2023/01/08 21:08:34;;;;;;;80.00;37.25;;;8.40;99.90;;;;;;6221480;23;20818;-87
2023/01/08 21:11:02;;;;;;;76.72;33.67;;;8.50;99.90;;;;;;6220102;23;20242;-88
2023/01/08 21:13:28;;;;;;;80.00;41.83;;;8.50;99.90;;;;;;6247058;23;20619;-88
2023/01/08 21:16:00;;;;;;;76.50;39.17;;;8.60;99.90;;;;;;6219946;23;20210;-87
2023/01/08 21:18:27;;;;;;;77.93;41.58;;;8.60;99.90;;;;;;6247146;23;20150;-87
2023/01/08 21:21:01;;;;;;;81.05;50.03;;;8.60;99.90;;;;;;6246593;23;20167;-88
2023/01/08 21:23:27;;;;;;;79.53;43.42;;;8.60;99.90;;;;;;6219513;23;20136;-87
2023/01/08 21:25:58;;;;;;;80.72;47.10;;;8.70;99.90;;;;;;6220332;23;20171;-87
2023/01/08 21:28:25;;;;;;;84.03;41.97;;;8.60;99.90;;;;;;6220547;23;20151;-87
2023/01/08 21:30:51;;;;;;;75.20;36.17;;;8.60;99.90;;;;;;6220200;23;20144;-87
2023/01/08 21:33:17;;;;;;;75.10;31.57;;;8.70;99.90;;;;;;6246956;23;20217;-87
2023/01/08 21:35:42;;;;;;;73.47;30.43;;;8.70;99.90;;;;;;6247253;22;20402;-87
2023/01/08 21:38:11;;;;;;;78.13;42.43;;;8.70;99.90;;;;;;6247802;23;20770;-87
2023/01/08 21:40:37;;;;;;;77.35;37.22;;;8.70;99.90;;;;;;6247294;23;20171;-88
2023/01/08 21:45:56;;;;;;;78.93;44.95;;;8.70;99.90;;;;;;6247194;22;20389;-88
2023/01/08 21:48:21;;;;;;;80.00;46.08;;;8.80;99.90;;;;;;6220482;23;20162;-87
2023/01/08 21:50:47;;;;;;;78.63;44.47;;;8.80;99.90;;;;;;6220073;23;20607;-85
2023/01/08 21:53:31;;;;;;;77.23;38.97;;;8.80;99.90;;;;;;6220013;23;20154;-85
2023/01/08 21:55:58;;;;;;;77.45;37.30;;;8.80;99.90;;;;;;6220215;23;20182;-85
2023/01/08 21:58:25;;;;;;;73.68;32.95;;;8.80;99.90;;;;;;6247082;23;20140;-85
2023/01/08 22:00:51;;;;;;;76.80;32.55;;;8.80;99.90;;;;;;6220666;23;20600;-85
2023/01/08 22:03:17;;;;;;;77.70;37.67;;;8.80;99.90;;;;;;6220018;23;20180;-86
2023/01/08 22:05:42;;;;;;;78.13;42.10;;;8.90;99.90;;;;;;6247201;22;20160;-86
2023/01/08 22:08:12;;;;;;;74.20;32.90;;;8.90;99.90;;;;;;6220293;23;20170;-86
2023/01/08 22:10:39;;;;;;;76.70;32.28;;;8.90;99.90;;;;;;6220125;23;20155;-86
2023/01/08 22:13:06;;;;;;;74.35;34.25;;;8.90;99.90;;;;;;6247080;23;20599;-85
2023/01/08 22:15:32;;;;;;;75.35;35.13;;;9.00;99.90;;;;;;6246369;22;20139;-86
2023/01/08 22:17:58;;;;;;;74.80;36.47;;;9.00;99.90;;;;;;6246445;23;20608;-86
2023/01/08 22:20:23;;;;;;;75.87;33.97;;;9.00;99.90;;;;;;6199506;23;20207;-86
2023/01/08 22:22:49;;;;;;;74.83;37.03;;;9.00;99.90;;;;;;6185322;23;20184;-86
2023/01/08 22:25:15;;;;;;;74.87;34.67;;;9.00;99.90;;;;;;6187342;23;20144;-89
2023/01/08 22:27:41;;;;;;;80.73;37.70;;;9.00;99.90;;;;;;6184865;23;20149;-88
2023/01/08 22:30:07;;;;;;;75.60;37.00;;;9.00;99.90;;;;;;6186837;23;20196;-88
2023/01/08 22:32:33;;;;;;;75.40;33.55;;;9.00;99.90;;;;;;6187154;23;20228;-88
2023/01/08 22:34:59;;;;;;;76.10;31.33;;;9.00;99.90;;;;;;6187114;23;20164;-88
2023/01/08 22:37:24;;;;;;;75.50;34.27;;;9.00;99.90;;;;;;6185186;23;20404;-89
2023/01/08 22:39:50;;;;;;;75.93;31.40;;;9.00;99.90;;;;;;6185297;23;20152;-88
2023/01/08 22:42:16;;;;;;;75.90;36.23;;;9.00;99.90;;;;;;6186753;23;20180;-87
2023/01/08 22:44:41;;;;;;;77.57;37.60;;;9.10;99.90;;;;;;6186865;23;20216;-88
2023/01/08 22:47:08;;;;;;;74.67;34.23;;;9.00;99.90;;;;;;6185332;23;20165;-88
2023/01/08 22:49:37;;;;;;;75.50;32.67;;;9.00;99.90;;;;;;6185754;23;20152;-88
2023/01/08 22:52:04;;;;;;;76.40;36.33;;;9.00;99.90;;;;;;6184882;23;20180;-88
2023/01/08 22:54:30;;;;;;;75.25;30.15;;;9.00;99.90;;;;;;6185031;23;20149;-89
2023/01/08 22:56:56;;;;;;;72.30;26.90;;;8.90;99.90;;;;;;6188100;23;20157;-88
2023/01/08 22:59:21;;;;;;;73.80;24.67;;;8.90;99.90;;;;;;6191306;23;20149;-88
2023/01/08 23:01:47;;;;;;;72.40;22.43;;;8.90;99.90;;;;;;6196752;23;20431;-89